Time;durP1;ratioP1;P1;durP2;ratioP2;P2;SDS_P1;SDS_P2;PMS_P1;PMS_P2;Temp;Humidity;BMP_temperature;BMP_pressure;BME280_temperature;BME280_humidity;BME280_pressure;Samples;Min_cycle;Max_cycle;Signal;HPM_P1;HPM_P2
2022/03/22 00:00:35;;;;;;;12.63;10.37;;;;;;;4.53;nan;99504.69;5054368;28;20296;-70
2022/03/22 00:03:03;;;;;;;13.27;10.17;;;;;;;4.58;nan;99505.06;5054022;28;20682;-70
2022/03/22 00:05:29;;;;;;;14.93;9.23;;;;;;;4.64;nan;99491.31;5054163;28;20233;-71
2022/03/22 00:07:55;;;;;;;13.70;9.90;;;;;;;4.56;nan;99496.50;5054134;28;20221;-70
2022/03/22 00:10:22;;;;;;;10.60;9.00;;;;;;;4.69;nan;99499.59;5053916;28;20201;-70
2022/03/22 00:12:49;;;;;;;11.17;9.50;;;;;;;4.64;nan;99493.94;5053616;28;20664;-70
2022/03/22 00:15:17;;;;;;;14.90;10.43;;;;;;;4.53;nan;99497.59;5053839;28;20295;-70
2022/03/22 00:17:44;;;;;;;13.87;9.90;;;;;;;4.48;nan;99494.56;5053969;28;20278;-70
2022/03/22 00:20:11;;;;;;;13.30;10.37;;;;;;;4.29;nan;99491.22;5053311;28;20255;-70
2022/03/22 00:22:39;;;;;;;12.47;9.43;;;;;;;4.31;nan;99492.72;5053902;28;20201;-70
2022/03/22 00:25:07;;;;;;;12.80;9.93;;;;;;;4.22;nan;99490.13;5053801;28;20279;-70
2022/03/22 00:27:50;;;;;;;15.53;9.33;;;;;;;4.14;nan;99488.22;5053432;28;20692;-70
2022/03/22 00:30:18;;;;;;;15.43;9.93;;;;;;;4.22;nan;99488.34;5053515;28;20632;-70
2022/03/22 00:32:44;;;;;;;11.60;9.90;;;;;;;4.16;nan;99488.88;5053693;28;20201;-70
2022/03/22 00:35:11;;;;;;;13.03;9.63;;;;;;;4.15;nan;99489.03;5053404;28;20233;-70
2022/03/22 00:37:38;;;;;;;13.87;9.67;;;;;;;4.12;nan;99481.44;5053612;28;20208;-71
2022/03/22 00:40:07;;;;;;;12.33;8.93;;;;;;;4.09;nan;99486.97;5053344;28;20663;-70
2022/03/22 00:42:34;;;;;;;13.30;10.57;;;;;;;4.07;nan;99481.84;5053321;28;20213;-70
2022/03/22 00:45:01;;;;;;;14.77;10.87;;;;;;;4.00;nan;99482.56;5053120;28;20704;-70
2022/03/22 00:47:28;;;;;;;12.57;9.87;;;;;;;4.02;nan;99480.66;5053133;28;20229;-70
2022/03/22 00:49:54;;;;;;;14.33;9.43;;;;;;;3.97;nan;99480.25;5053298;28;20205;-71
2022/03/22 00:52:21;;;;;;;13.90;10.20;;;;;;;3.88;nan;99478.47;5053100;28;20668;-70
2022/03/22 00:54:47;;;;;;;14.23;10.77;;;;;;;3.85;nan;99482.19;5053404;28;20235;-70
2022/03/22 00:57:13;;;;;;;12.80;10.03;;;;;;;3.90;nan;99482.63;5053480;28;20227;-68
2022/03/22 01:02:23;;;;;;;16.47;10.57;;;;;;;3.76;nan;99474.34;5053283;28;20636;-70
2022/03/22 01:04:50;;;;;;;12.93;9.40;;;;;;;3.72;nan;99468.53;5051910;28;20229;-70
2022/03/22 01:07:17;;;;;;;13.67;10.30;;;;;;;3.71;nan;99472.13;5053301;28;20236;-70
2022/03/22 01:09:43;;;;;;;13.47;9.90;;;;;;;3.66;nan;99476.16;5053406;28;20212;-70
2022/03/22 01:12:10;;;;;;;13.30;10.20;;;;;;;3.67;nan;99475.19;5053891;28;20209;-70
2022/03/22 01:14:37;;;;;;;14.03;10.33;;;;;;;3.65;nan;99469.22;5053302;28;20225;-70
2022/03/22 01:17:06;;;;;;;11.43;9.10;;;;;;;3.59;nan;99472.44;5053376;28;20201;-70
2022/03/22 01:19:33;;;;;;;12.67;10.27;;;;;;;3.52;nan;99472.16;5053276;28;20232;-70
2022/03/22 01:21:59;;;;;;;14.20;10.70;;;;;;;3.58;nan;99476.03;5053284;28;20201;-70
2022/03/22 01:24:26;;;;;;;11.37;9.47;;;;;;;3.58;nan;99468.16;5053209;28;20289;-70
2022/03/22 01:26:53;;;;;;;12.30;10.30;;;;;;;3.60;nan;99469.66;5053203;28;20258;-70
2022/03/22 01:29:19;;;;;;;12.80;9.87;;;;;;;3.62;nan;99477.41;5053232;28;20209;-70
2022/03/22 01:31:46;;;;;;;11.37;9.97;;;;;;;3.65;nan;99469.22;5055767;28;20205;-70
2022/03/22 01:34:13;;;;;;;13.40;9.87;;;;;;;3.61;nan;99462.63;5056768;28;20241;-70
2022/03/22 01:36:39;;;;;;;13.63;10.43;;;;;;;3.59;nan;99459.28;5056865;28;20185;-70
2022/03/22 01:39:05;;;;;;;15.13;10.47;;;;;;;3.60;nan;99464.41;5056732;28;20210;-70
2022/03/22 01:41:32;;;;;;;17.13;10.63;;;;;;;3.58;nan;99465.50;5056667;28;20668;-70
2022/03/22 01:43:58;;;;;;;14.13;10.90;;;;;;;3.57;nan;99464.66;5056861;28;20612;-70
2022/03/22 01:46:25;;;;;;;15.03;10.60;;;;;;;3.62;nan;99461.63;5056966;28;20205;-70
2022/03/22 01:48:53;;;;;;;14.53;10.77;;;;;;;3.57;nan;99454.16;5056853;28;20236;-70
2022/03/22 01:51:22;;;;;;;14.67;10.70;;;;;;;3.57;nan;99455.97;5056824;28;20212;-70
2022/03/22 01:53:49;;;;;;;13.53;9.63;;;;;;;3.50;nan;99447.81;5057279;28;20229;-70
2022/03/22 01:56:16;;;;;;;14.87;10.37;;;;;;;3.53;nan;99457.22;5056766;28;20205;-70
2022/03/22 01:58:42;;;;;;;16.23;10.97;;;;;;;3.52;nan;99455.56;5056699;28;20208;-70
2022/03/22 02:06:40;;;;;;;15.30;10.47;;;;;;;3.42;nan;99454.72;5056405;28;20220;-70
2022/03/22 02:09:06;;;;;;;13.63;10.07;;;;;;;3.53;nan;99454.59;5056157;28;20695;-70
2022/03/22 02:11:34;;;;;;;15.37;11.03;;;;;;;3.45;nan;99454.47;5056209;28;20560;-70
2022/03/22 02:14:00;;;;;;;15.63;10.93;;;;;;;3.43;nan;99451.16;5056407;28;20226;-70
2022/03/22 02:16:26;;;;;;;14.00;10.43;;;;;;;3.38;nan;99454.19;5056334;28;20211;-70
2022/03/22 02:18:53;;;;;;;18.07;12.07;;;;;;;3.38;nan;99445.47;5056895;28;20201;-70
2022/03/22 02:21:21;;;;;;;12.63;10.70;;;;;;;3.42;nan;99452.09;5056807;28;20209;-70
2022/03/22 02:23:51;;;;;;;14.50;10.57;;;;;;;3.43;nan;99440.63;5056209;28;20231;-70
2022/03/22 02:26:21;;;;;;;16.67;11.57;;;;;;;3.37;nan;99439.38;5055958;28;20189;-70
2022/03/22 02:28:53;;;;;;;13.97;11.23;;;;;;;3.20;nan;99440.09;5056098;28;20228;-70
2022/03/22 02:31:20;;;;;;;15.60;11.40;;;;;;;3.13;nan;99444.25;5056127;28;20196;-70
2022/03/22 02:33:46;;;;;;;15.43;11.93;;;;;;;3.21;nan;99449.63;5055815;28;20229;-70
2022/03/22 02:36:13;;;;;;;18.17;11.83;;;;;;;3.20;nan;99441.91;5055961;28;20193;-70
2022/03/22 02:38:40;;;;;;;14.80;11.73;;;;;;;3.23;nan;99444.22;5055632;28;20208;-70
2022/03/22 02:41:07;;;;;;;17.33;12.07;;;;;;;3.11;nan;99450.63;5055889;28;20205;-70
2022/03/22 02:43:34;;;;;;;15.53;11.97;;;;;;;3.10;nan;99441.06;5055169;28;20213;-70
2022/03/22 02:46:00;;;;;;;18.43;12.33;;;;;;;3.12;nan;99441.75;5055829;28;20205;-70
2022/03/22 02:48:27;;;;;;;18.73;12.60;;;;;;;3.12;nan;99442.56;5055678;28;20236;-70
2022/03/22 02:50:53;;;;;;;16.37;11.87;;;;;;;3.15;nan;99450.19;5055697;28;20201;-70
2022/03/22 02:53:19;;;;;;;18.77;12.33;;;;;;;3.18;nan;99443.81;5055649;28;20209;-70
2022/03/22 02:55:46;;;;;;;18.07;12.97;;;;;;;3.20;nan;99450.59;5055520;28;20225;-70
2022/03/22 02:58:12;;;;;;;20.43;12.73;;;;;;;3.14;nan;99453.78;5055537;28;20201;-70
2022/03/22 03:00:38;;;;;;;18.63;13.47;;;;;;;3.15;nan;99452.81;5055240;28;20205;-70
2022/03/22 03:03:05;;;;;;;16.33;12.17;;;;;;;3.13;nan;99448.66;5055494;28;20205;-70
2022/03/22 03:05:32;;;;;;;17.17;12.53;;;;;;;3.21;nan;99451.44;5055403;28;20229;-70
2022/03/22 03:07:59;;;;;;;18.10;12.60;;;;;;;3.09;nan;99447.28;5055376;28;20251;-70
2022/03/22 03:10:26;;;;;;;17.80;12.83;;;;;;;3.07;nan;99438.72;5055409;28;20201;-70
2022/03/22 03:13:06;;;;;;;20.43;13.60;;;;;;;3.09;nan;99447.28;5055344;28;20201;-70
2022/03/22 03:15:32;;;;;;;18.13;12.93;;;;;;;2.98;nan;99440.34;5055247;28;20248;-70
2022/03/22 03:17:59;;;;;;;20.87;12.97;;;;;;;2.89;nan;99454.31;5054838;28;20205;-70
2022/03/22 03:20:25;;;;;;;24.67;13.90;;;;;;;2.98;nan;99455.31;5054895;28;20201;-70
2022/03/22 03:22:52;;;;;;;20.93;13.30;;;;;;;2.85;nan;99450.31;5055162;28;20209;-70
2022/03/22 03:25:18;;;;;;;22.93;13.17;;;;;;;2.82;nan;99455.84;5055139;28;20225;-70
2022/03/22 03:27:45;;;;;;;19.17;13.17;;;;;;;2.86;nan;99456.41;5055029;28;20291;-70
2022/03/22 03:30:12;;;;;;;20.20;13.57;;;;;;;2.92;nan;99461.09;5055015;28;20207;-70
2022/03/22 03:32:38;;;;;;;17.63;13.27;;;;;;;2.93;nan;99458.34;5054957;28;20212;-70
2022/03/22 03:35:06;;;;;;;17.10;12.17;;;;;;;2.90;nan;99450.75;5054471;28;20233;-70
2022/03/22 03:37:34;;;;;;;18.30;13.17;;;;;;;2.78;nan;99458.88;5054869;28;20209;-70
2022/03/22 03:40:01;;;;;;;19.60;12.77;;;;;;;2.74;nan;99462.72;5054807;28;20201;-70
2022/03/22 03:42:27;;;;;;;18.10;13.43;;;;;;;2.75;nan;99467.03;5054431;28;20209;-70
2022/03/22 03:47:37;;;;;;;20.13;13.63;;;;;;;2.71;nan;99463.81;5054699;28;20725;-70
2022/03/22 03:50:06;;;;;;;19.10;14.10;;;;;;;2.74;nan;99458.31;5054623;28;20228;-70
2022/03/22 03:52:36;;;;;;;16.87;12.73;;;;;;;2.71;nan;99465.66;5054571;28;20209;-70
2022/03/22 03:55:07;;;;;;;16.27;12.63;;;;;;;2.66;nan;99463.41;5053164;28;20225;-70
2022/03/22 03:57:35;;;;;;;16.63;13.23;;;;;;;2.64;nan;99467.97;5054515;28;20193;-70
2022/03/22 04:00:02;;;;;;;22.43;12.53;;;;;;;2.59;nan;99458.84;5053964;28;20668;-70
2022/03/22 04:02:28;;;;;;;18.67;12.90;;;;;;;2.52;nan;99469.03;5054279;28;20205;-70
2022/03/22 04:04:55;;;;;;;22.40;13.67;;;;;;;2.43;nan;99469.03;5053784;28;20225;-70
2022/03/22 04:07:25;;;;;;;22.93;14.13;;;;;;;2.48;nan;99466.84;5054151;28;20200;-70
2022/03/22 04:09:54;;;;;;;18.80;12.80;;;;;;;2.52;nan;99465.59;5054270;28;20212;-70
2022/03/22 04:12:22;;;;;;;16.97;12.50;;;;;;;2.55;nan;99463.53;5054141;28;20259;-70
2022/03/22 04:14:51;;;;;;;16.37;12.60;;;;;;;2.56;nan;99464.34;5054144;28;20789;-70
2022/03/22 04:17:18;;;;;;;17.93;13.80;;;;;;;2.50;nan;99470.13;5054115;28;20212;-70
2022/03/22 04:19:45;;;;;;;16.07;12.73;;;;;;;2.53;nan;99467.25;5054012;28;20206;-70
2022/03/22 04:22:11;;;;;;;18.87;12.83;;;;;;;2.52;nan;99463.78;5053867;28;20201;-70
2022/03/22 04:24:38;;;;;;;16.73;12.80;;;;;;;2.44;nan;99468.88;5053655;28;20232;-70
2022/03/22 04:32:44;;;;;;;17.43;13.17;;;;;;;2.42;nan;99470.81;5053387;28;20192;-70
2022/03/22 04:35:17;;;;;;;16.73;13.37;;;;;;;2.45;nan;99461.84;5053102;28;20244;-70
2022/03/22 04:37:44;;;;;;;16.17;13.13;;;;;;;2.42;nan;99477.84;5053181;28;20229;-70
2022/03/22 04:40:14;;;;;;;16.67;13.07;;;;;;;2.39;nan;99475.50;5053468;28;20205;-70
2022/03/22 04:42:41;;;;;;;17.63;12.97;;;;;;;2.38;nan;99474.66;5053475;28;20213;-70
2022/03/22 04:45:08;;;;;;;16.83;12.30;;;;;;;2.45;nan;99472.34;5053438;28;20271;-70
2022/03/22 04:47:35;;;;;;;16.07;12.83;;;;;;;2.36;nan;99481.84;5053084;28;20205;-70
2022/03/22 04:50:09;;;;;;;14.87;12.13;;;;;;;2.37;nan;99493.16;5053436;28;20205;-70
2022/03/22 04:58:04;;;;;;;17.30;13.27;;;;;;;2.36;nan;99488.88;5053494;28;20172;-70
2022/03/22 05:00:34;;;;;;;18.93;13.13;;;;;;;2.38;nan;99486.94;5053201;28;20204;-70
2022/03/22 05:03:01;;;;;;;17.33;13.87;;;;;;;2.29;nan;99498.22;5053297;28;20209;-70
2022/03/22 05:08:08;;;;;;;19.43;13.20;;;;;;;2.23;nan;99496.16;5059636;28;20221;-70
2022/03/22 05:10:35;;;;;;;21.77;13.63;;;;;;;2.22;nan;99499.75;5059981;28;20289;-70
2022/03/22 05:13:02;;;;;;;17.67;13.07;;;;;;;2.18;nan;99500.97;5059706;28;20686;-70
2022/03/22 05:15:28;;;;;;;18.90;12.47;;;;;;;2.21;nan;99505.97;5059789;28;20274;-70
2022/03/22 05:17:56;;;;;;;17.40;13.00;;;;;;;2.16;nan;99503.72;5059493;28;20205;-68
2022/03/22 05:20:22;;;;;;;20.20;13.83;;;;;;;2.14;nan;99504.81;5059786;28;20255;-68
2022/03/22 05:22:49;;;;;;;17.07;12.93;;;;;;;2.24;nan;99510.91;5059365;28;20205;-68
2022/03/22 05:25:15;;;;;;;21.03;13.47;;;;;;;2.20;nan;99502.50;5059275;28;20776;-70
2022/03/22 05:27:42;;;;;;;16.03;12.60;;;;;;;2.16;nan;99518.63;5059642;28;20201;-70
2022/03/22 05:30:09;;;;;;;19.00;13.07;;;;;;;2.15;nan;99511.72;5059712;28;20618;-70
2022/03/22 05:32:36;;;;;;;19.13;13.23;;;;;;;2.19;nan;99513.09;5059647;28;20205;-70
2022/03/22 05:35:02;;;;;;;18.90;13.60;;;;;;;2.17;nan;99509.81;5059220;28;20237;-70
2022/03/22 05:37:29;;;;;;;21.03;14.17;;;;;;;2.30;nan;99519.09;5059497;28;20205;-70
2022/03/22 05:39:55;;;;;;;15.43;13.20;;;;;;;2.31;nan;99522.56;5059272;28;20208;-71
2022/03/22 05:42:21;;;;;;;19.63;13.93;;;;;;;2.37;nan;99527.28;5059146;28;20205;-70
2022/03/22 05:44:49;;;;;;;19.03;14.43;;;;;;;2.39;nan;99522.75;5059774;28;20232;-70
2022/03/22 05:47:15;;;;;;;17.50;13.93;;;;;;;2.22;nan;99528.59;5059346;28;20211;-70
2022/03/22 05:49:42;;;;;;;19.47;13.40;;;;;;;2.26;nan;99520.31;5059107;28;20229;-70
2022/03/22 05:52:08;;;;;;;21.20;13.67;;;;;;;2.37;nan;99519.41;5059266;28;20202;-70
2022/03/22 05:54:35;;;;;;;20.73;14.47;;;;;;;2.47;nan;99512.38;5059495;28;20236;-70
2022/03/22 05:57:01;;;;;;;19.37;13.50;;;;;;;2.52;nan;99516.28;5058876;28;20683;-70
2022/03/22 05:59:28;;;;;;;17.67;14.13;;;;;;;2.68;nan;99514.00;5059317;28;20201;-70
2022/03/22 06:01:54;;;;;;;17.20;13.13;;;;;;;2.67;nan;99514.13;5059031;28;20201;-70
2022/03/22 06:04:20;;;;;;;24.60;14.63;;;;;;;2.64;nan;99519.66;5059004;28;20224;-70
2022/03/22 06:06:47;;;;;;;20.30;13.80;;;;;;;2.72;nan;99514.56;5058713;28;20212;-70
2022/03/22 06:09:15;;;;;;;20.23;14.57;;;;;;;2.79;nan;99518.28;5058631;28;20225;-70
2022/03/22 06:11:42;;;;;;;18.77;14.47;;;;;;;2.83;nan;99520.53;5058391;28;20251;-70
2022/03/22 06:14:09;;;;;;;18.40;12.77;;;;;;;2.87;nan;99513.19;5058235;28;20734;-69
2022/03/22 06:16:35;;;;;;;21.43;13.47;;;;;;;3.00;nan;99516.41;5058582;28;20201;-70
2022/03/22 06:19:02;;;;;;;22.83;14.17;;;;;;;3.07;nan;99510.47;5054709;28;20252;-70
2022/03/22 06:21:28;;;;;;;21.13;14.40;;;;;;;3.15;nan;99502.75;5055556;28;20205;-70
2022/03/22 06:23:55;;;;;;;21.07;13.47;;;;;;;3.21;nan;99517.13;5055084;28;20585;-70
2022/03/22 06:26:22;;;;;;;18.30;13.90;;;;;;;3.21;nan;99514.50;5055200;28;20224;-70
2022/03/22 06:28:48;;;;;;;19.70;14.00;;;;;;;3.32;nan;99522.25;5055203;28;20228;-70
2022/03/22 06:31:15;;;;;;;22.50;14.97;;;;;;;3.39;nan;99513.66;5055286;28;20205;-70
2022/03/22 06:33:41;;;;;;;21.50;13.57;;;;;;;3.51;nan;99516.97;5054900;28;20205;-70
2022/03/22 06:36:08;;;;;;;18.77;14.40;;;;;;;3.53;nan;99517.69;5055607;28;20190;-70
2022/03/22 06:38:39;;;;;;;22.40;14.03;;;;;;;3.62;nan;99509.78;5055160;28;20533;-70
2022/03/22 06:41:05;;;;;;;20.67;14.90;;;;;;;3.64;nan;99507.84;5055390;28;20190;-70
2022/03/22 06:43:31;;;;;;;20.27;14.77;;;;;;;3.72;nan;99505.38;5070823;28;20205;-70
2022/03/22 06:45:58;;;;;;;19.50;14.33;;;;;;;3.81;nan;99506.31;5054714;28;20253;-70
2022/03/22 06:48:24;;;;;;;21.17;15.00;;;;;;;3.91;nan;99500.06;5054609;28;20232;-70
2022/03/22 06:50:51;;;;;;;20.07;14.27;;;;;;;3.93;nan;99508.63;5054822;28;20217;-70
2022/03/22 06:53:18;;;;;;;25.80;15.07;;;;;;;3.98;nan;99508.22;5054565;28;20205;-70
2022/03/22 06:55:44;;;;;;;23.67;14.97;;;;;;;4.18;nan;99515.91;5054918;28;20229;-70
2022/03/22 06:58:14;;;;;;;22.50;14.53;;;;;;;4.35;nan;99528.34;5055105;28;20222;-70
2022/03/22 07:00:41;;;;;;;21.53;14.10;;;;;;;4.34;nan;99523.22;5054755;28;20689;-70
2022/03/22 07:03:08;;;;;;;22.50;14.97;;;;;;;4.35;nan;99524.84;5054904;28;20202;-70
2022/03/22 07:05:34;;;;;;;23.60;14.90;;;;;;;4.38;nan;99529.84;5054987;28;20229;-70
2022/03/22 07:08:01;;;;;;;19.80;14.60;;;;;;;4.45;nan;99533.53;5054515;28;20687;-69
2022/03/22 07:10:27;;;;;;;21.00;14.13;;;;;;;4.47;nan;99536.88;5054750;28;20311;-70
2022/03/22 07:12:56;;;;;;;22.47;15.30;;;;;;;4.49;nan;99525.22;5054921;28;20215;-69
2022/03/22 07:15:29;;;;;;;20.73;14.97;;;;;;;4.57;nan;99535.03;5054647;28;20228;-70
2022/03/22 07:17:58;;;;;;;24.27;14.53;;;;;;;4.68;nan;99537.47;5055432;28;20217;-68
2022/03/22 07:20:24;;;;;;;22.67;14.87;;;;;;;4.78;nan;99546.13;5054339;28;20197;-68
2022/03/22 07:22:51;;;;;;;21.47;13.87;;;;;;;4.83;nan;99534.19;5051530;28;20197;-68
2022/03/22 07:25:18;;;;;;;18.03;13.20;;;;;;;5.04;nan;99547.97;5053840;28;20221;-68
2022/03/22 07:27:45;;;;;;;20.33;13.17;;;;;;;5.05;nan;99541.69;5054090;28;20209;-68
2022/03/22 07:30:13;;;;;;;20.47;13.70;;;;;;;5.04;nan;99541.84;5053701;28;20699;-69
2022/03/22 07:32:40;;;;;;;19.37;13.70;;;;;;;5.15;nan;99539.81;5054541;28;20209;-70
2022/03/22 07:35:08;;;;;;;18.17;14.27;;;;;;;5.32;nan;99538.19;5053994;28;20576;-70
2022/03/22 07:37:35;;;;;;;24.90;13.83;;;;;;;5.24;nan;99541.56;5054232;28;20211;-70
2022/03/22 07:40:05;;;;;;;20.00;13.20;;;;;;;5.32;nan;99543.44;5053850;28;20671;-69
2022/03/22 07:42:32;;;;;;;21.03;14.57;;;;;;;5.38;nan;99537.59;5053987;28;20197;-68
2022/03/22 07:45:01;;;;;;;22.17;13.90;;;;;;;5.56;nan;99538.44;5053962;28;20221;-68
2022/03/22 07:47:28;;;;;;;19.27;13.30;;;;;;;5.61;nan;99530.88;5054025;28;20208;-68
2022/03/22 07:55:22;;;;;;;19.47;13.20;;;;;;;5.87;nan;99539.69;5053747;28;20231;-68
2022/03/22 07:57:49;;;;;;;16.83;12.97;;;;;;;6.08;nan;99535.75;5053892;28;20205;-68
2022/03/22 08:00:17;;;;;;;21.17;13.23;;;;;;;6.23;nan;99547.38;5053774;28;20209;-68
2022/03/22 08:02:58;;;;;;;16.47;12.07;;;;;;;6.15;nan;99541.25;5054018;28;20677;-68
2022/03/22 08:05:25;;;;;;;15.77;12.17;;;;;;;6.25;nan;99534.84;5053736;28;20221;-68
2022/03/22 08:07:53;;;;;;;20.50;13.63;;;;;;;6.33;nan;99548.09;5053659;28;20205;-68
2022/03/22 08:10:20;;;;;;;17.60;12.87;;;;;;;6.39;nan;99536.94;5053856;28;20271;-68
2022/03/22 08:12:46;;;;;;;19.23;12.80;;;;;;;6.48;nan;99545.72;5054103;28;20208;-68
2022/03/22 08:15:13;;;;;;;17.87;13.50;;;;;;;6.49;nan;99550.03;5053403;28;20221;-69
2022/03/22 08:17:40;;;;;;;19.63;13.60;;;;;;;6.55;nan;99552.84;5053556;28;20267;-68
2022/03/22 08:20:08;;;;;;;17.20;13.57;;;;;;;6.70;nan;99547.81;5053273;28;20198;-68
2022/03/22 08:22:52;;;;;;;22.93;13.47;;;;;;;6.74;nan;99547.34;5053605;28;20236;-68
2022/03/22 08:25:38;;;;;;;16.43;12.80;;;;;;;6.84;nan;99542.75;5053083;28;20236;-68
2022/03/22 08:28:06;;;;;;;17.57;13.00;;;;;;;6.94;nan;99542.63;5053374;28;20201;-68
2022/03/22 08:30:34;;;;;;;17.63;13.37;;;;;;;6.97;nan;99547.59;5053550;28;20228;-68
2022/03/22 08:33:06;;;;;;;19.77;14.23;;;;;;;7.03;nan;99544.31;5053482;28;20201;-68
2022/03/22 08:35:34;;;;;;;18.30;13.57;;;;;;;7.42;nan;99540.94;5053122;28;20237;-68
2022/03/22 08:38:02;;;;;;;18.87;14.17;;;;;;;7.60;nan;99541.63;5053152;28;20207;-68
2022/03/22 08:40:28;;;;;;;17.10;13.93;;;;;;;7.72;nan;99540.31;5052660;28;20208;-68
2022/03/22 08:42:57;;;;;;;17.23;13.57;;;;;;;7.67;nan;99539.13;5053303;28;20201;-68
2022/03/22 08:45:26;;;;;;;16.80;12.40;;;;;;;7.89;nan;99541.13;5053286;28;20221;-68
2022/03/22 08:47:53;;;;;;;15.47;12.77;;;;;;;7.97;nan;99530.56;5053114;28;20580;-68
2022/03/22 08:50:21;;;;;;;18.77;12.80;;;;;;;8.19;nan;99541.28;5053322;28;20229;-68
2022/03/22 08:52:49;;;;;;;18.77;13.33;;;;;;;8.22;nan;99538.34;5052997;28;20569;-68
2022/03/22 08:55:17;;;;;;;16.73;12.30;;;;;;;8.12;nan;99542.13;5052824;28;20225;-68
2022/03/22 08:57:46;;;;;;;16.67;12.07;;;;;;;8.38;nan;99532.19;5053144;28;20204;-68
2022/03/22 09:00:13;;;;;;;16.70;12.87;;;;;;;8.22;nan;99530.38;5052862;28;20205;-68
2022/03/22 09:02:41;;;;;;;17.57;12.40;;;;;;;8.22;nan;99526.91;5052839;28;20208;-68
2022/03/22 09:07:53;;;;;;;17.43;12.43;;;;;;;8.89;nan;99534.31;5052863;28;20544;-68
2022/03/22 09:10:21;;;;;;;18.10;12.77;;;;;;;8.73;nan;99526.44;5052956;28;20251;-69
2022/03/22 09:12:50;;;;;;;18.03;13.43;;;;;;;8.87;nan;99525.72;5052855;28;20216;-68
2022/03/22 09:15:18;;;;;;;18.43;13.60;;;;;;;8.82;nan;99536.03;5053103;28;20227;-69
2022/03/22 09:17:44;;;;;;;17.60;13.00;;;;;;;9.11;nan;99537.03;5052705;28;20201;-69
2022/03/22 09:20:13;;;;;;;18.00;12.97;;;;;;;9.24;nan;99534.63;5052820;28;20681;-69
2022/03/22 09:22:40;;;;;;;17.70;12.47;;;;;;;9.28;nan;99529.81;5052981;28;20209;-68
2022/03/22 09:25:07;;;;;;;18.70;12.87;;;;;;;9.53;nan;99531.28;5052787;28;20729;-68
2022/03/22 09:27:34;;;;;;;21.03;13.87;;;;;;;9.55;nan;99529.31;5052506;28;20662;-68
2022/03/22 09:30:00;;;;;;;17.53;13.77;;;;;;;9.48;nan;99534.50;5052427;28;20224;-68
2022/03/22 09:32:26;;;;;;;19.43;13.07;;;;;;;9.85;nan;99523.91;5052392;28;20201;-68
2022/03/22 09:34:53;;;;;;;16.90;13.77;;;;;;;9.74;nan;99529.63;5052385;28;20269;-69
2022/03/22 09:37:20;;;;;;;22.10;15.03;;;;;;;9.93;nan;99525.69;5052670;28;20205;-67
2022/03/22 09:39:46;;;;;;;19.77;14.00;;;;;;;9.97;nan;99519.00;5052951;28;20201;-67
2022/03/22 09:42:13;;;;;;;17.83;14.30;;;;;;;10.19;nan;99524.28;5052687;28;20209;-69
2022/03/22 09:44:39;;;;;;;19.73;13.33;;;;;;;10.21;nan;99519.63;5052537;28;20748;-69
2022/03/22 09:47:07;;;;;;;19.13;13.67;;;;;;;10.47;nan;99524.53;5052745;28;20209;-67
2022/03/22 09:49:33;;;;;;;15.77;13.57;;;;;;;10.80;nan;99525.78;5052161;28;20308;-69
2022/03/22 09:52:02;;;;;;;15.30;12.83;;;;;;;10.71;nan;99517.09;5051401;28;20227;-70
2022/03/22 09:54:29;;;;;;;16.00;12.97;;;;;;;10.87;nan;99526.72;5055827;28;20221;-69
2022/03/22 09:56:55;;;;;;;14.40;11.80;;;;;;;10.88;nan;99515.06;5056130;28;20201;-69
2022/03/22 09:59:21;;;;;;;16.70;12.57;;;;;;;11.12;nan;99521.91;5056238;28;20217;-68
2022/03/22 10:01:48;;;;;;;19.80;13.13;;;;;;;11.18;nan;99519.34;5056282;28;20212;-68
2022/03/22 10:04:16;;;;;;;16.73;12.87;;;;;;;11.07;nan;99515.31;5056152;28;20251;-69
2022/03/22 10:06:50;;;;;;;14.80;12.87;;;;;;;11.35;nan;99519.94;5056328;28;20300;-70
2022/03/22 10:09:30;;;;;;;15.40;12.93;;;;;;;11.56;nan;99506.59;5056240;28;20225;-69
2022/03/22 10:11:57;;;;;;;18.00;14.30;;;;;;;11.67;nan;99506.16;5056225;28;20197;-68
2022/03/22 10:14:34;;;;;;;19.00;14.83;;;;;;;11.74;nan;99499.03;5056192;28;20231;-69
2022/03/22 10:17:18;;;;;;;19.20;15.23;;;;;;;11.72;nan;99503.75;5055778;28;20662;-69
2022/03/22 10:19:52;;;;;;;18.23;14.70;;;;;;;11.34;nan;99503.13;5056161;28;20189;-69
2022/03/22 10:22:26;;;;;;;18.13;14.67;;;;;;;11.60;nan;99499.91;5056190;28;20189;-69
2022/03/22 10:24:58;;;;;;;17.10;12.80;;;;;;;11.94;nan;99502.72;5056032;28;20226;-69
2022/03/22 10:27:36;;;;;;;17.10;13.63;;;;;;;11.65;nan;99503.66;5055921;28;20201;-69
2022/03/22 10:30:06;;;;;;;15.87;13.17;;;;;;;11.99;nan;99493.13;5055354;28;20237;-69
2022/03/22 10:32:44;;;;;;;15.37;13.50;;;;;;;12.14;nan;99495.69;5055770;28;20206;-69
2022/03/22 10:35:17;;;;;;;16.23;13.33;;;;;;;12.09;nan;99487.44;5055411;28;20232;-69
2022/03/22 10:37:46;;;;;;;14.03;11.77;;;;;;;11.98;nan;99493.31;5055345;28;20190;-69
2022/03/22 10:40:38;;;;;;;14.63;12.83;;;;;;;11.83;nan;99489.88;5055648;28;20237;-68
2022/03/22 10:43:07;;;;;;;15.87;12.00;;;;;;;12.07;nan;99492.16;5055402;28;20214;-69
2022/03/22 10:45:50;;;;;;;15.83;12.77;;;;;;;12.40;nan;99491.38;5055157;28;20229;-68
2022/03/22 10:48:17;;;;;;;14.97;12.27;;;;;;;12.19;nan;99482.59;5055531;28;20210;-69
2022/03/22 10:50:47;;;;;;;16.97;12.83;;;;;;;12.37;nan;99482.91;5055306;28;20236;-69
2022/03/22 10:53:18;;;;;;;15.03;12.83;;;;;;;12.62;nan;99481.44;5055387;28;20207;-68
2022/03/22 10:55:46;;;;;;;17.60;13.40;;;;;;;13.09;nan;99481.47;5055080;28;20226;-68
2022/03/22 10:58:15;;;;;;;16.43;12.93;;;;;;;13.28;nan;99484.19;5055296;28;20217;-68
2022/03/22 11:00:46;;;;;;;16.03;12.17;;;;;;;12.88;nan;99477.03;5055146;28;20213;-69
2022/03/22 11:03:14;;;;;;;14.17;12.67;;;;;;;12.62;nan;99482.25;5054782;28;20210;-69
2022/03/22 11:05:42;;;;;;;14.93;13.10;;;;;;;13.27;nan;99481.72;5054640;28;20644;-68
2022/03/22 11:08:09;;;;;;;14.27;12.50;;;;;;;13.22;nan;99479.66;5055045;28;20206;-68
2022/03/22 11:10:35;;;;;;;14.87;13.37;;;;;;;13.45;nan;99474.78;5054768;28;20628;-68
2022/03/22 11:13:02;;;;;;;20.20;14.10;;;;;;;13.59;nan;99471.13;5055003;28;20217;-68
2022/03/22 11:15:34;;;;;;;16.83;14.23;;;;;;;13.57;nan;99477.69;5054922;28;20228;-68
2022/03/22 11:18:02;;;;;;;16.00;13.40;;;;;;;13.71;nan;99472.13;5053721;28;20192;-69
2022/03/22 11:20:29;;;;;;;16.93;13.93;;;;;;;13.73;nan;99472.75;5053835;28;20240;-69
2022/03/22 11:22:57;;;;;;;15.73;13.40;;;;;;;13.85;nan;99468.47;5054129;28;20213;-69
2022/03/22 11:25:30;;;;;;;19.53;14.70;;;;;;;13.66;nan;99468.44;5054169;28;20236;-69
2022/03/22 11:28:06;;;;;;;16.93;13.87;;;;;;;13.70;nan;99473.16;5054166;28;20190;-69
2022/03/22 11:30:34;;;;;;;17.10;13.83;;;;;;;13.67;nan;99465.56;5054330;28;20697;-69
2022/03/22 11:35:56;;;;;;;14.77;13.23;;;;;;;13.69;nan;99460.84;5054050;28;20222;-69
2022/03/22 11:38:49;;;;;;;18.17;14.40;;;;;;;13.08;nan;99456.63;5054294;28;20196;-69
2022/03/22 11:44:22;;;;;;;14.33;12.93;;;;;;;13.27;nan;99471.03;5054012;28;20227;-69
2022/03/22 11:47:11;;;;;;;15.63;13.70;;;;;;;13.50;nan;99456.31;5054089;28;20200;-69
2022/03/22 11:49:49;;;;;;;15.93;13.07;;;;;;;13.45;nan;99447.25;5053622;28;20326;-69
2022/03/22 11:52:16;;;;;;;15.97;13.53;;;;;;;13.83;nan;99454.47;5053797;28;20575;-69
2022/03/22 11:54:58;;;;;;;15.63;13.50;;;;;;;13.32;nan;99455.22;5053827;28;20232;-68
2022/03/22 11:57:25;;;;;;;17.03;14.23;;;;;;;13.36;nan;99454.63;5054685;28;20224;-69
2022/03/22 11:59:53;;;;;;;16.17;14.17;;;;;;;13.42;nan;99451.13;5053879;28;20255;-69
2022/03/22 12:02:23;;;;;;;21.47;14.60;;;;;;;13.72;nan;99449.75;5053337;28;20208;-68
2022/03/22 12:04:55;;;;;;;16.10;13.27;;;;;;;14.00;nan;99441.50;5053826;28;20232;-68
2022/03/22 12:07:27;;;;;;;15.43;13.83;;;;;;;14.04;nan;99438.22;5053685;28;20633;-68
2022/03/22 12:09:54;;;;;;;17.60;13.80;;;;;;;13.69;nan;99436.78;5053641;28;20213;-68
2022/03/22 12:12:20;;;;;;;17.27;14.00;;;;;;;13.96;nan;99430.41;5053647;28;20209;-68
2022/03/22 12:14:48;;;;;;;17.23;13.90;;;;;;;13.99;nan;99434.50;5053650;28;20237;-69
2022/03/22 12:17:15;;;;;;;17.50;13.60;;;;;;;14.11;nan;99432.88;5053114;28;20292;-68
2022/03/22 12:19:41;;;;;;;16.53;14.40;;;;;;;13.94;nan;99424.44;5053590;28;20309;-68
2022/03/22 12:22:08;;;;;;;17.87;14.07;;;;;;;13.85;nan;99425.69;5053280;28;20205;-68
2022/03/22 12:24:36;;;;;;;15.90;13.90;;;;;;;14.01;nan;99416.41;5053338;28;20225;-70